Airfield :
LOGIN :

Register | Disclaimer

   EN    FR    IT 

 










Legend :    VFR   Marginal VFR   IFR   Intensive IFR   Very Intensive IFR
Visi :
Ceiling :
>= 8 km
>= 3000ft
5 to 8 km
1000 to 3000 ft
1500m to 5 km
500 to 1000 ft
800 to 1500m
200 to 500 ft
< 800m
< 200 ft
Symbols :   Thunderstorms  Fog  Heavy snow  Heavy precipitations  Wind > 20 kt
SIGMETs :     Misc.  Thunderstorms  Icing  Turbulence  Mountain Waves  Volcanic Ashes






- Airport Elevation : 218 ft
- IATA code : LBG


LFPB - Paris / Le Bourget

CURRENT METAR :
  • 150730Z AUTO 23008KT 9999 BKN016 OVC064 14/12 Q1007 NOSIG

EXPIRED METARs :
  • 150700Z AUTO 21005KT 9999 FEW015 SCT020 BKN038 14/12 Q1006 TEMPO BKN010
  • 150630Z AUTO 20005KT 9999 BKN016 BKN029 BKN035 14/12 Q1006 TEMPO BKN010
  • 150600Z AUTO 23006KT 9999 BKN014 BKN028 BKN038 14/12 Q1006 NOSIG
  • 150530Z AUTO 20005KT 9999 BKN015 BKN022 OVC041 14/12 Q1006 TEMPO BKN010
  • 150500Z AUTO 18005KT 9999 BKN015 BKN056 OVC200 14/12 Q1006 TEMPO BKN012
  • 150430Z AUTO 20005KT 9999 SCT015 BKN084 OVC190 14/12 Q1006 TEMPO BKN012

TAF TAF LFPB
Valid from the 15 at 06:00 until the 16 at 06:00 UTC


150500Z 1506/1606 20005KT 9999 BKN040
PROB40
TEMPO 1506/1508 BKN010
PROB40
TEMPO 1517/1519 23015G25KT SCT040TCU
BECMG 1601/1603 BKN012
PROB40
TEMPO 1603/1606 3000 RA BKN007
BECMG 1604/1606 20015G25KT
ATIS : +33 1 48 62 43 92



MET'MAP, your aeronautical weather chart ! - Copyright ORBIFLY December 2007 - Disclaimer

ORBIFLY MET'MAP TEAM :

Programming & Development : Alexandra Zaïnal
Concept & Development : Baudouin d'Aumeries
Co-Development & Prog : Marc-Olivier Méhu
Technical & hardware support : Manuel Goepfert

Contact : metmap@orbifly.com




SOURCES & CREDITS :

   NOAA